Terminal Aerodrome Forecast
Issued by NWS

Home | Current Version | Previous Version | Text Only | Print | Product List | Glossary On
Versions: 1 2 3 4 5 6 7 8 9 10 11 12 13 14 15 16 17 18 19 20 21 22 23 24 25 26 27 28 29 30 31 32 33 34 35 36 37 38 39 40 41
057
FTUS44 KMOB 181500 AAA
TAFBFM
TAF AMD
KBFM 181500Z 1815/1912 00000KT 1/4SM FG VV002
     FM181600 19004KT 4SM BR OVC007
     FM181800 19005KT P6SM OVC010
     FM190000 13006KT 4SM BR OVC004
     FM190300 13006KT 1/2SM FG OVC002=

USA.gov is the U.S. government's official web portal to all federal, state and local government web resources and services.